sensor_id;sensor_type;location;lat;lon;timestamp;temperature;humidity
21590;DHT22;10957;50.968;6.828;2022-08-03T00:02:02;19.70;75.10
21590;DHT22;10957;50.968;6.828;2022-08-03T00:07:03;19.80;68.10
21590;DHT22;10957;50.968;6.828;2022-08-03T00:12:04;19.70;69.90
21590;DHT22;10957;50.968;6.828;2022-08-03T00:17:05;19.70;76.70
21590;DHT22;10957;50.968;6.828;2022-08-03T00:22:06;19.60;74.50
21590;DHT22;10957;50.968;6.828;2022-08-03T00:27:07;19.50;79.00
21590;DHT22;10957;50.968;6.828;2022-08-03T00:32:08;19.50;76.50
21590;DHT22;10957;50.968;6.828;2022-08-03T00:37:08;19.40;75.20
21590;DHT22;10957;50.968;6.828;2022-08-03T00:42:09;19.40;69.70
21590;DHT22;10957;50.968;6.828;2022-08-03T00:47:10;19.50;65.00
21590;DHT22;10957;50.968;6.828;2022-08-03T00:52:12;19.40;67.60
21590;DHT22;10957;50.968;6.828;2022-08-03T00:57:44;19.40;65.60
21590;DHT22;10957;50.968;6.828;2022-08-03T01:02:45;19.30;69.10
21590;DHT22;10957;50.968;6.828;2022-08-03T01:13:47;19.30;70.80
21590;DHT22;10957;50.968;6.828;2022-08-03T01:18:56;19.20;66.30
21590;DHT22;10957;50.968;6.828;2022-08-03T01:34:11;19.00;83.00
21590;DHT22;10957;50.968;6.828;2022-08-03T01:39:15;18.90;87.00
21590;DHT22;10957;50.968;6.828;2022-08-03T01:44:17;18.90;84.60
21590;DHT22;10957;50.968;6.828;2022-08-03T01:49:18;18.90;90.90
21590;DHT22;10957;50.968;6.828;2022-08-03T01:54:20;18.80;91.50
21590;DHT22;10957;50.968;6.828;2022-08-03T01:59:24;18.80;94.40
21590;DHT22;10957;50.968;6.828;2022-08-03T02:04:26;18.80;91.90
21590;DHT22;10957;50.968;6.828;2022-08-03T02:09:28;18.80;95.60
21590;DHT22;10957;50.968;6.828;2022-08-03T02:14:30;18.70;92.70
21590;DHT22;10957;50.968;6.828;2022-08-03T02:19:32;18.60;98.20
21590;DHT22;10957;50.968;6.828;2022-08-03T02:24:33;18.60;99.90
21590;DHT22;10957;50.968;6.828;2022-08-03T02:29:36;18.50;99.90
21590;DHT22;10957;50.968;6.828;2022-08-03T02:34:39;18.60;99.90
21590;DHT22;10957;50.968;6.828;2022-08-03T02:39:42;18.50;96.10
21590;DHT22;10957;50.968;6.828;2022-08-03T02:44:46;18.50;94.80
21590;DHT22;10957;50.968;6.828;2022-08-03T02:49:48;18.50;99.90
21590;DHT22;10957;50.968;6.828;2022-08-03T02:54:54;18.50;99.90
21590;DHT22;10957;50.968;6.828;2022-08-03T02:59:56;18.40;99.90
21590;DHT22;10957;50.968;6.828;2022-08-03T03:04:59;18.40;99.90
21590;DHT22;10957;50.968;6.828;2022-08-03T03:10:03;18.30;99.90
21590;DHT22;10957;50.968;6.828;2022-08-03T03:15:04;18.30;99.90
21590;DHT22;10957;50.968;6.828;2022-08-03T03:20:07;18.30;99.90
21590;DHT22;10957;50.968;6.828;2022-08-03T03:25:09;18.20;99.90
21590;DHT22;10957;50.968;6.828;2022-08-03T03:30:10;18.20;99.90
21590;DHT22;10957;50.968;6.828;2022-08-03T03:35:13;18.30;99.90
21590;DHT22;10957;50.968;6.828;2022-08-03T03:40:14;18.30;99.90
21590;DHT22;10957;50.968;6.828;2022-08-03T03:45:15;18.30;99.90
21590;DHT22;10957;50.968;6.828;2022-08-03T03:50:17;18.20;99.90
21590;DHT22;10957;50.968;6.828;2022-08-03T03:55:18;18.20;99.90
21590;DHT22;10957;50.968;6.828;2022-08-03T04:00:19;18.20;99.90
21590;DHT22;10957;50.968;6.828;2022-08-03T04:05:20;18.20;99.90
21590;DHT22;10957;50.968;6.828;2022-08-03T04:10:41;18.10;99.90
21590;DHT22;10957;50.968;6.828;2022-08-03T04:15:58;18.10;99.90
21590;DHT22;10957;50.968;6.828;2022-08-03T04:21:05;18.10;99.90
21590;DHT22;10957;50.968;6.828;2022-08-03T04:26:10;18.20;99.90
21590;DHT22;10957;50.968;6.828;2022-08-03T04:31:12;18.20;99.90
21590;DHT22;10957;50.968;6.828;2022-08-03T04:36:18;18.30;99.90
21590;DHT22;10957;50.968;6.828;2022-08-03T04:41:21;18.20;99.90
21590;DHT22;10957;50.968;6.828;2022-08-03T04:46:26;18.30;99.90
21590;DHT22;10957;50.968;6.828;2022-08-03T04:51:28;18.30;99.90
21590;DHT22;10957;50.968;6.828;2022-08-03T04:56:29;18.40;99.90
21590;DHT22;10957;50.968;6.828;2022-08-03T05:01:30;18.50;99.90
21590;DHT22;10957;50.968;6.828;2022-08-03T05:06:31;18.60;99.90
21590;DHT22;10957;50.968;6.828;2022-08-03T05:11:32;18.70;99.90
21590;DHT22;10957;50.968;6.828;2022-08-03T05:16:32;18.70;99.90
21590;DHT22;10957;50.968;6.828;2022-08-03T05:21:33;18.70;99.90
21590;DHT22;10957;50.968;6.828;2022-08-03T05:26:34;18.80;99.90
21590;DHT22;10957;50.968;6.828;2022-08-03T05:31:35;18.80;99.90
21590;DHT22;10957;50.968;6.828;2022-08-03T05:36:36;19.00;99.90
21590;DHT22;10957;50.968;6.828;2022-08-03T05:41:37;19.00;99.90
21590;DHT22;10957;50.968;6.828;2022-08-03T05:46:38;19.10;99.90
21590;DHT22;10957;50.968;6.828;2022-08-03T05:51:39;19.30;99.90
21590;DHT22;10957;50.968;6.828;2022-08-03T05:56:39;19.40;99.90
21590;DHT22;10957;50.968;6.828;2022-08-03T06:01:40;19.50;99.90
21590;DHT22;10957;50.968;6.828;2022-08-03T06:06:41;19.90;93.60
21590;DHT22;10957;50.968;6.828;2022-08-03T06:11:43;20.10;85.20
21590;DHT22;10957;50.968;6.828;2022-08-03T06:16:43;20.40;79.60
21590;DHT22;10957;50.968;6.828;2022-08-03T06:21:44;20.80;57.30
21590;DHT22;10957;50.968;6.828;2022-08-03T06:26:45;21.30;55.00
21590;DHT22;10957;50.968;6.828;2022-08-03T06:31:46;21.70;40.10
21590;DHT22;10957;50.968;6.828;2022-08-03T06:36:47;22.30;32.20
21590;DHT22;10957;50.968;6.828;2022-08-03T06:41:51;22.80;21.40
21590;DHT22;10957;50.968;6.828;2022-08-03T06:46:53;23.20;14.10
21590;DHT22;10957;50.968;6.828;2022-08-03T06:51:53;23.80;9.30
21590;DHT22;10957;50.968;6.828;2022-08-03T06:56:56;24.20;5.10
21590;DHT22;10957;50.968;6.828;2022-08-03T07:01:57;24.80;2.90
21590;DHT22;10957;50.968;6.828;2022-08-03T07:06:57;25.30;1.00
21590;DHT22;10957;50.968;6.828;2022-08-03T07:11:58;25.80;1.00
21590;DHT22;10957;50.968;6.828;2022-08-03T07:17:01;26.30;1.00
21590;DHT22;10957;50.968;6.828;2022-08-03T07:22:02;26.50;1.00
21590;DHT22;10957;50.968;6.828;2022-08-03T07:27:03;26.90;1.00
21590;DHT22;10957;50.968;6.828;2022-08-03T07:32:04;27.30;1.00
21590;DHT22;10957;50.968;6.828;2022-08-03T07:37:05;27.50;1.00
21590;DHT22;10957;50.968;6.828;2022-08-03T07:42:06;28.20;1.00
21590;DHT22;10957;50.968;6.828;2022-08-03T07:47:07;27.90;1.00
21590;DHT22;10957;50.968;6.828;2022-08-03T07:52:07;28.50;1.00
21590;DHT22;10957;50.968;6.828;2022-08-03T07:57:27;29.30;1.00
21590;DHT22;10957;50.968;6.828;2022-08-03T08:02:27;29.20;1.00
21590;DHT22;10957;50.968;6.828;2022-08-03T08:07:28;29.90;1.00
21590;DHT22;10957;50.968;6.828;2022-08-03T08:12:29;30.00;1.00
21590;DHT22;10957;50.968;6.828;2022-08-03T08:17:30;29.90;1.00
21590;DHT22;10957;50.968;6.828;2022-08-03T08:22:30;30.30;1.00
21590;DHT22;10957;50.968;6.828;2022-08-03T08:27:31;29.90;1.00
21590;DHT22;10957;50.968;6.828;2022-08-03T08:32:32;30.20;1.00
21590;DHT22;10957;50.968;6.828;2022-08-03T08:37:33;31.30;1.00
21590;DHT22;10957;50.968;6.828;2022-08-03T08:42:36;31.10;1.00
21590;DHT22;10957;50.968;6.828;2022-08-03T08:47:39;30.80;1.00
21590;DHT22;10957;50.968;6.828;2022-08-03T08:52:40;31.40;1.00
21590;DHT22;10957;50.968;6.828;2022-08-03T08:57:51;31.70;1.00
21590;DHT22;10957;50.968;6.828;2022-08-03T09:02:52;31.00;1.00
21590;DHT22;10957;50.968;6.828;2022-08-03T09:07:53;31.60;1.00
21590;DHT22;10957;50.968;6.828;2022-08-03T09:12:54;32.10;1.00
21590;DHT22;10957;50.968;6.828;2022-08-03T09:17:57;31.50;1.00
21590;DHT22;10957;50.968;6.828;2022-08-03T09:23:04;31.70;1.00
21590;DHT22;10957;50.968;6.828;2022-08-03T09:28:15;32.20;1.00
21590;DHT22;10957;50.968;6.828;2022-08-03T09:33:16;32.50;1.00
21590;DHT22;10957;50.968;6.828;2022-08-03T09:38:18;32.30;1.00
21590;DHT22;10957;50.968;6.828;2022-08-03T09:43:19;32.30;1.00
21590;DHT22;10957;50.968;6.828;2022-08-03T09:48:28;32.00;1.00
21590;DHT22;10957;50.968;6.828;2022-08-03T09:53:29;32.10;1.00
21590;DHT22;10957;50.968;6.828;2022-08-03T09:58:30;31.70;1.00
21590;DHT22;10957;50.968;6.828;2022-08-03T10:03:33;32.10;1.00
21590;DHT22;10957;50.968;6.828;2022-08-03T10:08:34;32.10;1.00
21590;DHT22;10957;50.968;6.828;2022-08-03T10:13:35;32.40;1.00
21590;DHT22;10957;50.968;6.828;2022-08-03T10:18:37;31.80;1.00
21590;DHT22;10957;50.968;6.828;2022-08-03T10:23:38;31.70;1.00
21590;DHT22;10957;50.968;6.828;2022-08-03T10:28:46;31.40;1.00
21590;DHT22;10957;50.968;6.828;2022-08-03T10:33:49;31.70;1.00
21590;DHT22;10957;50.968;6.828;2022-08-03T10:38:51;31.80;1.00
21590;DHT22;10957;50.968;6.828;2022-08-03T10:44:02;32.10;1.00
21590;DHT22;10957;50.968;6.828;2022-08-03T10:49:04;32.00;1.00
21590;DHT22;10957;50.968;6.828;2022-08-03T10:54:05;31.80;1.00
21590;DHT22;10957;50.968;6.828;2022-08-03T10:59:06;32.00;1.00
21590;DHT22;10957;50.968;6.828;2022-08-03T11:09:15;31.50;1.00
21590;DHT22;10957;50.968;6.828;2022-08-03T11:14:20;31.40;1.00
21590;DHT22;10957;50.968;6.828;2022-08-03T11:19:21;31.20;1.00
21590;DHT22;10957;50.968;6.828;2022-08-03T11:29:36;31.70;1.00
21590;DHT22;10957;50.968;6.828;2022-08-03T11:35:22;32.10;1.00
21590;DHT22;10957;50.968;6.828;2022-08-03T11:40:50;32.00;1.00
21590;DHT22;10957;50.968;6.828;2022-08-03T11:46:02;32.10;1.00
21590;DHT22;10957;50.968;6.828;2022-08-03T11:51:07;32.00;1.00
21590;DHT22;10957;50.968;6.828;2022-08-03T11:56:18;32.30;1.00
21590;DHT22;10957;50.968;6.828;2022-08-03T12:01:20;32.30;1.00
21590;DHT22;10957;50.968;6.828;2022-08-03T12:06:21;32.30;1.00
21590;DHT22;10957;50.968;6.828;2022-08-03T12:11:23;32.20;1.00
21590;DHT22;10957;50.968;6.828;2022-08-03T12:16:24;31.70;1.00
21590;DHT22;10957;50.968;6.828;2022-08-03T12:21:57;31.90;1.00
21590;DHT22;10957;50.968;6.828;2022-08-03T12:26:57;31.90;1.00
21590;DHT22;10957;50.968;6.828;2022-08-03T12:31:58;32.30;1.00
21590;DHT22;10957;50.968;6.828;2022-08-03T12:37:04;32.30;1.00
21590;DHT22;10957;50.968;6.828;2022-08-03T12:42:04;31.80;1.00
21590;DHT22;10957;50.968;6.828;2022-08-03T12:47:05;32.00;1.00
21590;DHT22;10957;50.968;6.828;2022-08-03T12:52:06;31.80;1.00
21590;DHT22;10957;50.968;6.828;2022-08-03T12:57:09;32.20;1.00
21590;DHT22;10957;50.968;6.828;2022-08-03T13:02:21;32.40;1.00
21590;DHT22;10957;50.968;6.828;2022-08-03T13:07:22;32.30;1.00
21590;DHT22;10957;50.968;6.828;2022-08-03T13:12:25;32.40;1.00
21590;DHT22;10957;50.968;6.828;2022-08-03T13:17:26;32.40;1.00
21590;DHT22;10957;50.968;6.828;2022-08-03T13:22:27;32.50;1.00
21590;DHT22;10957;50.968;6.828;2022-08-03T13:27:32;32.60;1.00
21590;DHT22;10957;50.968;6.828;2022-08-03T13:32:33;32.30;1.00
21590;DHT22;10957;50.968;6.828;2022-08-03T13:37:35;32.60;1.00
21590;DHT22;10957;50.968;6.828;2022-08-03T13:42:35;32.20;1.00
21590;DHT22;10957;50.968;6.828;2022-08-03T13:47:36;32.20;1.00
21590;DHT22;10957;50.968;6.828;2022-08-03T13:52:37;32.20;1.00
21590;DHT22;10957;50.968;6.828;2022-08-03T13:57:38;32.70;1.00
21590;DHT22;10957;50.968;6.828;2022-08-03T14:02:39;31.90;1.00
21590;DHT22;10957;50.968;6.828;2022-08-03T14:07:39;31.90;1.00
21590;DHT22;10957;50.968;6.828;2022-08-03T14:12:40;32.10;1.00
21590;DHT22;10957;50.968;6.828;2022-08-03T14:17:41;32.10;1.00
21590;DHT22;10957;50.968;6.828;2022-08-03T14:22:42;32.10;1.00
21590;DHT22;10957;50.968;6.828;2022-08-03T14:27:42;32.30;1.00
21590;DHT22;10957;50.968;6.828;2022-08-03T14:32:43;32.00;1.00
21590;DHT22;10957;50.968;6.828;2022-08-03T14:37:44;32.30;1.00
21590;DHT22;10957;50.968;6.828;2022-08-03T14:42:44;32.60;1.00
21590;DHT22;10957;50.968;6.828;2022-08-03T14:47:45;32.80;1.00
21590;DHT22;10957;50.968;6.828;2022-08-03T14:52:46;33.10;1.00
21590;DHT22;10957;50.968;6.828;2022-08-03T14:57:47;32.60;1.00
21590;DHT22;10957;50.968;6.828;2022-08-03T15:36:17;33.30;1.00
21590;DHT22;10957;50.968;6.828;2022-08-03T15:41:18;33.60;1.00
21590;DHT22;10957;50.968;6.828;2022-08-03T15:46:19;33.50;1.00
21590;DHT22;10957;50.968;6.828;2022-08-03T15:51:20;33.40;1.00
21590;DHT22;10957;50.968;6.828;2022-08-03T15:56:21;33.50;1.00
21590;DHT22;10957;50.968;6.828;2022-08-03T16:01:23;33.40;1.00
21590;DHT22;10957;50.968;6.828;2022-08-03T16:06:24;33.50;1.00
21590;DHT22;10957;50.968;6.828;2022-08-03T16:11:25;33.70;1.00
21590;DHT22;10957;50.968;6.828;2022-08-03T16:16:26;33.70;1.00
21590;DHT22;10957;50.968;6.828;2022-08-03T16:21:27;33.40;1.00
21590;DHT22;10957;50.968;6.828;2022-08-03T16:26:28;33.30;1.00
21590;DHT22;10957;50.968;6.828;2022-08-03T16:31:28;33.40;1.00
21590;DHT22;10957;50.968;6.828;2022-08-03T16:36:30;33.30;1.00
21590;DHT22;10957;50.968;6.828;2022-08-03T16:41:31;33.10;1.00
21590;DHT22;10957;50.968;6.828;2022-08-03T16:46:32;32.80;1.00
21590;DHT22;10957;50.968;6.828;2022-08-03T16:51:33;32.70;1.00
21590;DHT22;10957;50.968;6.828;2022-08-03T16:56:34;32.60;1.00
21590;DHT22;10957;50.968;6.828;2022-08-03T17:01:35;32.40;1.00
21590;DHT22;10957;50.968;6.828;2022-08-03T17:06:38;32.30;1.00
21590;DHT22;10957;50.968;6.828;2022-08-03T17:11:44;32.20;1.00
21590;DHT22;10957;50.968;6.828;2022-08-03T17:16:46;32.10;1.00
21590;DHT22;10957;50.968;6.828;2022-08-03T17:22:09;31.90;1.00
21590;DHT22;10957;50.968;6.828;2022-08-03T17:27:15;31.80;1.00
21590;DHT22;10957;50.968;6.828;2022-08-03T17:32:17;31.50;1.00
21590;DHT22;10957;50.968;6.828;2022-08-03T17:37:20;31.60;1.00
21590;DHT22;10957;50.968;6.828;2022-08-03T17:42:22;31.30;1.00
21590;DHT22;10957;50.968;6.828;2022-08-03T17:47:23;31.00;1.00
21590;DHT22;10957;50.968;6.828;2022-08-03T17:52:34;30.90;1.00
21590;DHT22;10957;50.968;6.828;2022-08-03T17:57:41;30.80;1.00
21590;DHT22;10957;50.968;6.828;2022-08-03T18:02:50;30.80;1.00
21590;DHT22;10957;50.968;6.828;2022-08-03T18:08:25;30.50;1.00
21590;DHT22;10957;50.968;6.828;2022-08-03T18:13:44;30.30;1.00
21590;DHT22;10957;50.968;6.828;2022-08-03T18:18:50;30.10;1.00
21590;DHT22;10957;50.968;6.828;2022-08-03T18:23:54;29.70;1.00
21590;DHT22;10957;50.968;6.828;2022-08-03T18:28:56;29.50;1.00
21590;DHT22;10957;50.968;6.828;2022-08-03T18:34:01;29.10;1.00
21590;DHT22;10957;50.968;6.828;2022-08-03T18:39:03;28.90;1.00
21590;DHT22;10957;50.968;6.828;2022-08-03T18:44:05;28.70;1.00
21590;DHT22;10957;50.968;6.828;2022-08-03T18:54:38;28.30;1.00
21590;DHT22;10957;50.968;6.828;2022-08-03T19:00:08;28.10;1.00
21590;DHT22;10957;50.968;6.828;2022-08-03T19:05:17;27.90;1.00
21590;DHT22;10957;50.968;6.828;2022-08-03T19:10:19;27.60;1.00
21590;DHT22;10957;50.968;6.828;2022-08-03T19:15:28;27.30;1.00
21590;DHT22;10957;50.968;6.828;2022-08-03T19:20:31;27.10;1.00
21590;DHT22;10957;50.968;6.828;2022-08-03T19:25:37;26.90;1.00
21590;DHT22;10957;50.968;6.828;2022-08-03T19:30:39;26.70;1.00
21590;DHT22;10957;50.968;6.828;2022-08-03T19:35:41;26.50;1.00
21590;DHT22;10957;50.968;6.828;2022-08-03T19:40:46;26.30;1.00
21590;DHT22;10957;50.968;6.828;2022-08-03T19:45:49;26.20;1.00
21590;DHT22;10957;50.968;6.828;2022-08-03T19:50:52;26.00;1.00
21590;DHT22;10957;50.968;6.828;2022-08-03T19:55:56;25.90;1.00
21590;DHT22;10957;50.968;6.828;2022-08-03T20:00:57;25.70;1.00
21590;DHT22;10957;50.968;6.828;2022-08-03T20:05:59;25.50;1.00
21590;DHT22;10957;50.968;6.828;2022-08-03T20:11:00;25.60;1.00
21590;DHT22;10957;50.968;6.828;2022-08-03T20:16:01;25.30;1.00
21590;DHT22;10957;50.968;6.828;2022-08-03T20:21:05;25.10;1.00
21590;DHT22;10957;50.968;6.828;2022-08-03T20:26:08;25.00;1.00
21590;DHT22;10957;50.968;6.828;2022-08-03T20:31:11;24.90;1.00
21590;DHT22;10957;50.968;6.828;2022-08-03T20:36:13;24.70;1.00
21590;DHT22;10957;50.968;6.828;2022-08-03T20:41:15;24.60;1.00
21590;DHT22;10957;50.968;6.828;2022-08-03T20:46:18;24.40;1.00
21590;DHT22;10957;50.968;6.828;2022-08-03T20:51:19;24.20;1.00
21590;DHT22;10957;50.968;6.828;2022-08-03T20:56:21;24.10;1.00
21590;DHT22;10957;50.968;6.828;2022-08-03T21:01:22;23.90;1.00
21590;DHT22;10957;50.968;6.828;2022-08-03T21:06:24;23.80;1.00
21590;DHT22;10957;50.968;6.828;2022-08-03T21:11:32;23.80;1.00
21590;DHT22;10957;50.968;6.828;2022-08-03T21:16:38;23.60;1.00
21590;DHT22;10957;50.968;6.828;2022-08-03T21:21:43;23.50;1.00
21590;DHT22;10957;50.968;6.828;2022-08-03T21:26:52;23.40;1.00
21590;DHT22;10957;50.968;6.828;2022-08-03T21:31:55;23.40;1.00
21590;DHT22;10957;50.968;6.828;2022-08-03T21:36:56;23.30;1.70
21590;DHT22;10957;50.968;6.828;2022-08-03T21:41:57;23.10;2.40
21590;DHT22;10957;50.968;6.828;2022-08-03T21:46:59;23.00;3.50
21590;DHT22;10957;50.968;6.828;2022-08-03T21:52:03;22.90;4.90
21590;DHT22;10957;50.968;6.828;2022-08-03T21:57:10;22.80;5.60
21590;DHT22;10957;50.968;6.828;2022-08-03T22:02:14;22.80;6.70
21590;DHT22;10957;50.968;6.828;2022-08-03T22:07:16;22.80;7.00
21590;DHT22;10957;50.968;6.828;2022-08-03T22:12:21;22.60;9.10
21590;DHT22;10957;50.968;6.828;2022-08-03T22:17:23;22.50;10.60
21590;DHT22;10957;50.968;6.828;2022-08-03T22:22:26;22.40;11.90
21590;DHT22;10957;50.968;6.828;2022-08-03T22:27:28;22.30;13.90
21590;DHT22;10957;50.968;6.828;2022-08-03T22:32:32;22.20;16.20
21590;DHT22;10957;50.968;6.828;2022-08-03T22:37:33;22.20;16.80
21590;DHT22;10957;50.968;6.828;2022-08-03T22:42:34;22.10;16.80
21590;DHT22;10957;50.968;6.828;2022-08-03T22:47:39;22.00;20.00
21590;DHT22;10957;50.968;6.828;2022-08-03T22:52:41;22.00;17.90
21590;DHT22;10957;50.968;6.828;2022-08-03T22:57:42;22.00;16.70
21590;DHT22;10957;50.968;6.828;2022-08-03T23:02:46;21.90;16.60
21590;DHT22;10957;50.968;6.828;2022-08-03T23:07:49;21.70;21.60
21590;DHT22;10957;50.968;6.828;2022-08-03T23:12:51;21.60;20.30
21590;DHT22;10957;50.968;6.828;2022-08-03T23:17:53;21.50;24.70
21590;DHT22;10957;50.968;6.828;2022-08-03T23:22:54;21.50;23.10
21590;DHT22;10957;50.968;6.828;2022-08-03T23:27:59;21.60;22.10
21590;DHT22;10957;50.968;6.828;2022-08-03T23:33:02;21.40;21.50
21590;DHT22;10957;50.968;6.828;2022-08-03T23:38:03;21.30;26.20
21590;DHT22;10957;50.968;6.828;2022-08-03T23:43:07;21.30;26.20
21590;DHT22;10957;50.968;6.828;2022-08-03T23:48:08;21.20;27.10
21590;DHT22;10957;50.968;6.828;2022-08-03T23:59:22;21.10;31.00
